Salem, OR (97303)

1:43 PM PST on February 13, 2016 (GMT -0800)
Country Glen | | Change Station
CLOSE
Current Station
Personal Weather Station
Location: Keizer, OR
Elevation: 134 ft
Nearby Weather Stations

Elev 134 ft 45.02 °N, 123.02 °W | Updated 12 seconds ago

Overcast
Overcast
50.2 °F
Feels Like 50.2 °F
N
3.9
Wind Variable Wind from SE
Gusts 7.0 mph

Today
High -- | Low -- °F
--% Chance of Precip.
Yesterday
High -- | Low -- °F
Precip. -- in
Pressure 30.29 in
Visibility 10.0 miles
Clouds Few 1000 ft
Overcast 8000 ft
Dew Point 44 °F
Humidity 79%
Rainfall 0.00 in
Snow Depth Not available.
7:16 AM 5:36 PM
Waxing Crescent, 34% visible
METAR KSLE 132056Z 18014KT 10SM FEW010 OVC080 10/06 A3028 RMK AO2 SLP256 T01000056 58023
Pressure 30.29 in
Visibility 10.0 miles
Clouds Few 1000 ft
Overcast 8000 ft
Dew Point 44 °F
Humidity 79%
Rainfall 0.00 in
Snow Depth Not available.
7:16 AM 5:36 PM
Waxing Crescent, 34% visible
METAR KSLE 132056Z 18014KT 10SM FEW010 OVC080 10/06 A3028 RMK AO2 SLP256 T01000056 58023

10-Day Weather Forecast

Almanac

Astronomy

Feb. 13, 2016 Rise Set
Actual Time
Civil Twilight
Nautical Twilight
Astronomical Twilight
Moon
Length of Visible Light
Length of Day
Tomorrow will be .
, % of the Moon is Illuminated

Today's Extremes

State Highs State Lows

Community

WunderPhotos

Upload Photos

1,892,682 photos uploaded!

WunderBlog® & News

Nearby

Air Quality

  Air Quality AQ Index Pollutant
Not available.

Snow Depth

Station Depth Elevation

Earthquake Activity

City Distance Mag. Time & Date
Minimum magnitude displayed is 2.5.

Coastal Water Temperatures

Place Temperature

Stations

Nearby Weather Stations

Station Location Temp. Windchill Dew Point Humidity Wind Precip. Elev Updated Type
                   

Watches & Warnings

There are currently no watches in effect.